Terminal Aerodrome Forecast
Issued by NWS

Home | Current Version | Previous Version | Text Only | Print | Product List | Glossary On
Versions: 1 2 3 4 5 6 7 8 9 10 11 12 13 14 15 16 17
000
FTUS43 KIND 011400 AAA
TAFHUF
TAF AMD
KHUF 011430Z 0115/0212 12008KT 2SM -SN BR OVC030
     FM011800 13008KT 3SM -RASN BR BKN010 OVC015
     FM012200 15006KT 2SM -RASN BR OVC004
     FM020000 34012G20KT 2SM -SN BR OVC007
     FM020400 33013G20KT 6SM -SHSN OVC020=

USA.gov is the U.S. government's official web portal to all federal, state and local government web resources and services.